Serhiy Makarenko

Скаут - Shakhtar
20 Ноя 2027
Суббота
Продолжить

Характер

Адаптивность (1) Амбиции (6) Скандальность (2) Верность (14) Стрессоустойчивость (3) Профессионализм (14) Благородство (5) Темперамент (19)

Профиль

Стиль управления Демократичный
Лицензия Континентальная A
Решительность 7
Управление людьми 10
Мотивация 12
Дисциплина 9
Удовлетворённость
100%
Усталость
0%
Должность Скаут
Зарплата 49.6K в нед.
Контракт 14.03.2028

Производительность

Поведение Хорошее
Эффективность тренировок
58%
Развитие игроков
60%
Профилактика травм
70%
Тактическая реализация
75%

Недавние события

Участвовал в селекционном совещании только что
Рекомендовал трансферную цель только что
Рекомендовал трансферную цель только что
Рекомендовал трансферную цель только что
Посетил матч 7 дн. назад
Оценил игрока 7 дн. назад
День рождения 7 дн. назад
Оценил игрока 7 дн. назад

Текущее наблюдение

153
Игрок Клуб Статус Способность Уверенность Наблюдений Последнее наблюдение Последний голос
Richard Ledezma River Plate Активный 141 / 129 40% 2 16.11.2027 -
Luca Langoni New England Revolution Активный 124 / 118 40% 2 16.11.2027 -
Liel Abada Charlotte Football Club Активный 149 / 145 40% 3 14.11.2027 -
Álvaro Barreal Santos Активный 133 / 137 40% 2 14.11.2027 -
Riqui Puig LA Galaxy Активный 139 / 125 40% 4 13.11.2027 -
Alan Lescano Argentinos Juniors Активный 131 / 136 40% 1 13.11.2027 -
Alan Velasco Boca Juniors Активный 134 / 134 40% 3 10.11.2027 -
Kevin Zenón Boca Juniors Активный 137 / 137 40% 4 10.11.2027 -
Leandro Andrade Chornomorets Активный 139 / 129 40% 4 10.11.2027 -
Bongokuhle Hlongwane Minnesota United FC Активный 126 / 117 40% 2 08.11.2027 -
Vinicius Tobias Metalist Активный 138 / 143 40% 3 08.11.2027 -
Liam Delap Nottingham Forest Активный 152 / 151 40% 1 07.11.2027 -
Pavel Bucha FC Cincinnati Активный 142 / 127 40% 3 03.11.2027 -
Jacob Ramsey Newcastle United Активный 154 / 156 40% 1 03.11.2027 -
Breel Embolo Atlanta United FC Активный 127 / 132 40% 1 03.11.2027 -
Francis Amuzu Grêmio Активный 137 / 136 40% 3 01.11.2027 -
Aníbal Moreno River Plate Активный 131 / 130 40% 2 01.11.2027 -
Vitaliy Mykolenko Everton Активный 140 / 145 40% 3 28.10.2027 -
Brennan Johnson Everton Активный 142 / 149 40% 2 28.10.2027 -
Yehor Yarmoliuk Brentford Активный 149 / 159 40% 5 25.10.2027 -
Helinho Toluca Активный 126 / 141 40% 3 25.10.2027 -
Alex Luna Instituto Активный 127 / 127 40% 2 24.10.2027 -
Nicolás Azambuja Danubio Активный 112 / 137 40% 1 24.10.2027 -
Pedro Neto Middlesbrough Активный 154 / 143 40% 1 24.10.2027 -
Kevin Schade Brentford Активный 155 / 161 40% 1 15.10.2027 -
Oskar Spiten-Nysæter Molde Активный 122 / 127 40% 1 15.10.2027 -
Denis Genreau Melbourne Victory Активный 136 / 132 40% 1 12.10.2027 -
Luca Meirelles Oleksandriya Активный 116 / 118 40% 1 04.10.2027 -
Alan Morinigo Olimpia Активный 118 / 119 40% 1 06.09.2027 -
Gonzalo Plata Rosenborg Активный 126 / 145 40% 2 31.08.2027 -
Mateo Peralta Danubio Активный 109 / 111 40% 1 31.08.2027 -
Fredrik Sjøvold Bodo/Glimt Активный 136 / 125 40% 1 30.08.2027 -
Stav Toriel Hapoel Tel Aviv Активный 146 / 140 40% 1 23.08.2027 -
Diogo Guzmán Montevideo City Torque Активный 121 / 123 40% 1 23.08.2027 -
Thiago Almada Fiorentina Активный 150 / 144 40% 1 16.08.2027 -
Alessio Zerbin Frosinone Активный 136 / 132 40% 1 16.08.2027 -
Dodo Fiorentina Активный 160 / 149 40% 1 16.08.2027 -
Mattia Felici Cagliari Активный 129 / 129 40% 1 10.08.2027 -
Roger François Udinese Активный 142 / 148 40% 1 10.08.2027 -
Yankuba Minteh Brighton Активный 149 / 156 40% 1 08.08.2027 -
Brooke Norton-Cuffy Hull City Активный 145 / 137 40% 1 08.08.2027 -
Kevin Fulham Активный 158 / 145 40% 3 07.08.2027 -
Tom Fellows Southampton Активный 133 / 128 40% 1 07.08.2027 -
Welington Southampton Активный 133 / 138 40% 2 06.08.2027 -
Kiernan Dewsbury-Hall Everton Активный 150 / 147 40% 2 06.08.2027 -
Chemsdine Talbi Sunderland Активный 150 / 150 40% 1 06.08.2027 -
Finn Azaz Southampton Активный 135 / 127 40% 2 04.08.2027 -
Marcus Edwards Burnley Активный 142 / 149 40% 1 04.08.2027 -
Dango Ouattara Brentford Активный 149 / 154 40% 1 04.08.2027 -
Koki Saito Queens Park Rangers Активный 136 / 124 40% 2 02.08.2027 -
Léo Scienza Southampton Активный 149 / 140 40% 1 02.08.2027 -
Kasey McAteer Ipswich Town Активный 139 / 138 40% 1 31.07.2027 -
Sorba Thomas Stoke City Активный 141 / 127 40% 2 27.07.2027 -
Mikkel Damsgaard Brentford Активный 144 / 143 40% 1 26.07.2027 -
Jay Stansfield Birmingham Активный 133 / 124 40% 1 26.07.2027 -
Aidan Morris Middlesbrough Активный 135 / 133 40% 3 25.07.2027 -
Samuel Edozie Southampton Активный 131 / 138 40% 1 25.07.2027 -
Jason Knight Bristol City Активный 132 / 124 40% 1 23.07.2027 -
Oliver Skipp Leicester City Активный 140 / 132 40% 1 23.07.2027 -
Abdul Fatawu Leicester City Активный 141 / 147 40% 1 23.07.2027 -
Isma Ruiz Córdoba Активный 139 / 139 40% 3 19.07.2027 -
Jacques Ekomié Wrexham Активный 130 / 131 40% 2 19.07.2027 -
Adam Randell Bristol City Активный 137 / 139 40% 2 19.07.2027 -
Gustavo Hamer Sheffield United Активный 139 / 134 40% 6 18.07.2027 -
David Brooks Bournemouth Активный 145 / 143 40% 1 18.07.2027 -
Samuele Angori Pisa Активный 140 / 140 40% 2 17.07.2027 -
Santiago Pierotti Lecce Активный 135 / 132 40% 1 17.07.2027 -
Ramón Terrats Getafe Активный 147 / 146 75% 13 14.07.2027 Решительно за
Callum O'Hare Sheffield United Активный 137 / 137 40% 1 14.07.2027 -
Oscar Al-Taawoun Активный 147 / 151 75% 6 10.07.2027 Решительно за
Jack Clarke Ipswich Town Активный 132 / 140 40% 1 10.07.2027 -
Jay Robinson Southampton Активный 129 / 123 40% 1 06.07.2027 -
Oleksandr Nazarenko Polissia Активный 121 / 117 65% 1 21.06.2027 За
Oleksii Hutsuliak Polissia Упущен 134 / 126 65% 1 17.06.2027 -
Artem Slesar Zorya Упущен 108 / 115 65% 1 15.06.2027 -
Michael Cooper Sheffield United Активный 132 / 136 40% 1 15.06.2027 -
Mathías Olivera Cesena Активный 150 / 148 40% 8 13.06.2027 -
Emanuele Valeri Parma Активный 132 / 134 40% 2 13.06.2027 -
Shea Charles Southampton Активный 145 / 141 40% 7 12.06.2027 -
Álex Valle Como Активный 147 / 143 40% 6 12.06.2027 -
Japhet Tanganga Sheffield United Активный 134 / 128 40% 3 10.06.2027 -
Imrân Louza Watford Активный 137 / 130 40% 5 10.06.2027 -
Nobel Mendy Hull City Активный 139 / 137 40% 2 09.06.2027 -
Andrea Carboni Monza Активный 130 / 131 40% 2 08.06.2027 -
Ilario Monterisi Frosinone Активный 128 / 125 40% 3 02.06.2027 -
Guille Rosas Gijón Активный 134 / 139 40% 2 02.06.2027 -
Luke McNally Bristol City Активный 134 / 127 40% 2 29.05.2027 -
Adrián Bernabé Parma Активный 144 / 141 40% 3 28.05.2027 -
Nikola Vlašić Torino Активный 145 / 142 40% 1 28.05.2027 -
Saša Lukić Ipswich Town Активный 143 / 137 40% 4 26.05.2027 -
Emam Ashour Al Ahly Активный 143 / 150 40% 3 26.05.2027 -
Petar Stanić Ludogorets Активный 129 / 142 40% 6 25.05.2027 -
Andrea Colpani Monza Активный 141 / 137 40% 1 25.05.2027 -
Tim Iroegbunam Hull City Активный 143 / 139 40% 5 23.05.2027 -
Edoardo Bove Watford Активный 124 / 138 40% 5 22.05.2027 -
Eduard Spertsyan Al-Ahli Активный 143 / 146 40% 2 17.05.2027 -
Caleb Yirenkyi Coventry City Активный 140 / 142 40% 1 16.05.2027 -
Thierry Rendall Correia Venezia Активный 147 / 136 40% 2 15.05.2027 -
Sidiki Chérif Coventry City Активный 129 / 127 40% 1 13.05.2027 -
Tommaso Pobega Bologna Активный 136 / 140 40% 1 13.05.2027 -
Max Bird Birmingham Активный 131 / 134 40% 2 12.05.2027 -
Aleksa Terzić Frosinone Активный 127 / 130 40% 2 11.05.2027 -
Toby Collyer West Bromwich Albion Активный 135 / 134 40% 1 11.05.2027 -
Bobby Thomas Coventry City Активный 135 / 129 40% 2 09.05.2027 -
Bitello Empoli Активный 140 / 129 40% 2 01.05.2027 -
Ibrahim Sangaré Nottingham Forest Активный 155 / 148 40% 1 01.05.2027 -
Dara O'Shea Ipswich Town Активный 132 / 138 40% 3 30.04.2027 -
Crysencio Summerville Al-Hilal Активный 157 / 128 40% 1 27.04.2027 -
Callum Doyle Wrexham Активный 129 / 128 40% 3 25.04.2027 -
Rolando Mandragora Torino Активный 150 / 138 40% 2 25.04.2027 -
Sindre Walle Egeli Nottingham Forest Активный 130 / 132 40% 1 22.04.2027 -
Toti Wolverhampton Активный 140 / 130 40% 1 19.04.2027 -
Tommaso Barbieri Cremonese Активный 131 / 136 40% 1 16.04.2027 -
Milan van Ewijk Coventry City Активный 139 / 137 40% 1 16.04.2027 -
Oscar Schwartau Norwich City Активный 126 / 137 40% 1 15.04.2027 -
Shea Lacey Millwall Активный 129 / 135 40% 1 09.04.2027 -
Joachim Andersen Fulham Активный 139 / 151 40% 1 04.04.2027 -
Morten Frendrup Genoa Активный 136 / 145 40% 3 30.03.2027 -
Callum Brittain Middlesbrough Активный 122 / 126 40% 2 29.03.2027 -
Tariq Lamptey Queens Park Rangers Активный 144 / 125 40% 1 23.03.2027 -
Yevhen Pidlepenets Bukovyna Активный 103 / 100 65% 1 26.01.2027 За
Đorđe Petrović Bournemouth Активный 148 / 148 40% 1 24.01.2027 -
Max Johnston Derby County Активный 123 / 120 40% 1 16.01.2027 -
Lucas Da Cunha Como Активный 138 / 153 40% 3 10.01.2027 -
Jordan Zemura Udinese Активный 130 / 128 40% 1 09.01.2027 -
Alessandro Buongiorno Sassuolo Активный 155 / 151 40% 1 28.12.2026 -
Matías Palacios Al Ain Активный 140 / 121 40% 2 18.12.2026 -
Marc Pubill Atlético Madrid Активный 145 / 151 40% 3 17.12.2026 -
Gastón Álvarez Al-Qadisiyah Активный 139 / 131 40% 2 17.12.2026 -
Sondre Auklend Valerenga Активный 115 / 134 40% 1 17.12.2026 -
Christos Mouzakitis Hull City Активный 137 / 135 40% 3 14.12.2026 -
Christos Zafeiris FC Copenhagen Активный 141 / 145 40% 1 14.12.2026 -
Musab Al-Juwayr Al-Qadisiyah Активный 133 / 125 40% 4 12.12.2026 -
Petar Sučić Inter Активный 150 / 148 40% 1 08.12.2026 -
Kaveh Azmoun Siah Jamegan Активный 136 / 121 40% 1 08.12.2026 -
Mohamed Simakan Al-Nassr Активный 145 / 152 40% 2 06.12.2026 -
Frans Krätzig Red Bull Salzburg Активный 131 / 131 40% 2 02.12.2026 -
Maxim De Cuyper Brighton Активный 146 / 138 40% 1 01.12.2026 -
Leandrinho Sharjah Активный 122 / 109 40% 1 01.12.2026 -
Mohamed Ali Ben Romdhane Al Ahly Активный 117 / 128 40% 1 01.12.2026 -
Ciro De Angelis Siah Jamegan Активный 119 / 140 40% 1 16.11.2026 -
Emil Breivik Molde Активный 119 / 122 40% 1 11.11.2026 -
Zoltan Bese Haladas Активный 108 / 115 40% 1 06.11.2026 -
Pedro Bicalho Qarabag Активный 118 / 124 40% 1 06.11.2026 -
Ehsan Beiranvand Padideh Активный 143 / 132 40% 1 29.10.2026 -
João Simões Sporting CP Активный 133 / 143 40% 1 27.10.2026 -
Dion Lopy Al-Ittihad Активный 121 / 129 40% 1 27.10.2026 -
Furkan Demir Rapid Wien Активный 116 / 119 40% 1 20.10.2026 -
Daniel Kelly Derby County Активный 107 / 116 40% 1 02.10.2026 -
Khalid Juma Al Ahli Активный 135 / 144 40% 2 26.09.2026 -
Yacine Adli Al-Shabab Активный 146 / 124 40% 1 24.09.2026 -
Fabian Rieder FC Augsburg Активный 132 / 133 40% 1 07.09.2026 -
Yasin Ayari Brighton Активный 131 / 154 40% 1 01.08.2026 -